Arribos y Zarpes

Historial de todos los arribos de buques descargados en el PSP

Filtrar Datos
-
Resultados Encontrados (100)
Código T. Tráfico Buque Tipo de Buque Viaje Línea Naviera A. Consignataria P. Procedencia P. Destino Bandera I. Llamada Eslora T.B.R. F.C. 20 M.N. Calado A. F. Cruce L.P. F. Fondeo M. Fondeo F. Virado Ancla F. Piloto A. Piloto Remolcadores F.C. Escolleras F.P. Línea F.T. Atracado Lancha Tramo Costado A. F. Inicio Op. F. Término Op. F.Piloto A. Piloto Remolcadores F. Libre de Cabos Lancha F.C. Escolleras F.D. Piloto F. Fondeo M. Fondeo F. Virado Ancla Calado Z. F.Cruce L.P. Atracado En Puerto
0019244 Altura HS SMETANA Container Ship 214S HLCL MARITIMEX Lázaro Cardenas (MX) Puerto Quetzal (GT) LR A8IC2 175.52 18,327.00 26/05/2015 03:53 9.20 26/05/2015 05:49 T-11 Estribor En Maniobra Arribando
0019243 Altura NYK PAULA Container Ship 131E NYK NYK Long Beach (US) Lázaro Cardenas (MX) PA 3FJC7 210.00 27,051.00 26/05/2015 03:43 8.50 26/05/2015 05:22 26/05/2015 06:00 GO MZ / VK 26/05/2015 06:13 PVI T-12 Estribor En Maniobra 01:02
0019242 Altura AGAMEMNON Container Ship 1505 MAERSK JCR Kwangyang (KP) Lázaro Cardenas (MX) LR D5CN6 317.80 89,776.00 25/05/2015 15:30 12.70 25/05/2015 17:40 25/05/2015 18:30 DS / CM TE / TY / VK 25/05/2015 18:47 25/05/2015 19:15 25/05/2015 19:29 PV T-19 Babor 25/05/2015 20:15 26/05/2015 03:05 26/05/2015 04:05 DS / CM TC / TE / TY 26/05/2015 04:16 PVI 26/05/2015 04:48 26/05/2015 04:54 13.80 26/05/2015 05:19 09:01 11:39
0019241 Altura HS CARIBE Container Ship PPB63E CMA CGM CMA CGM Ensenada (MX) Manzanillo (PA) LR A8EY7 282.10 50,242.00 25/05/2015 02:28 12.30 25/05/2015 03:40 25/05/2015 04:02 GR / CM MZ / TY 25/05/2015 04:14 25/05/2015 04:45 25/05/2015 05:00 PV T-04 Estribor 25/05/2015 08:10 25/05/2015 17:43 25/05/2015 17:56 GO / RH TE / VK 25/05/2015 18:10 PVI 25/05/2015 18:37 25/05/2015 18:38 11.60 25/05/2015 19:00 13:25 15:20
0019240 Altura CAUTIN Container Ship 519 CSAV HLCL San Antonio (CL) Nakhodka (RU) LR D5HE8 299.90 93,685.00 25/05/2015 00:51 11.10 25/05/2015 02:29 25/05/2015 03:20 DS / GO TC / TE / VK 25/05/2015 03:38 25/05/2015 04:15 25/05/2015 04:33 PVII T-18 Estribor 25/05/2015 06:00 25/05/2015 18:45 25/05/2015 19:28 GO / RH TE / TY / VK 25/05/2015 19:45 PV 25/05/2015 20:22 25/05/2015 20:26 11.30 25/05/2015 20:50 15:30 18:21
0019239 Altura NYK SILVIA Container Ship 429W NYK NYK Puerto Quetzal (GT) Long Beach (US) PA 3FNU3 210.00 27,051.00 24/05/2015 17:39 9.90 25/05/2015 12:25 25/05/2015 12:44 RH MZ / VK 25/05/2015 12:56 25/05/2015 13:17 25/05/2015 13:29 PVI T-13 Estribor 25/05/2015 15:20 17:07 17:59
0019238 Altura EVER UNIFIC Container Ship 0208-112E EVERGREEN NAVIOMAR Shanghai (CN) Buenaventura (CO) SG 9V7961 285.00 69,246.00 24/05/2015 21:06 12.50 24/05/2015 22:40 24/05/2015 23:00 GO / RH TC / TE 24/05/2015 23:10 24/05/2015 23:31 24/05/2015 23:52 PV T-02 Estribor 25/05/2015 00:50 26/05/2015 00:50 26/05/2015 02:00 GO / RH TE / VK 26/05/2015 02:09 PV 26/05/2015 02:30 26/05/2015 02:32 10.50 26/05/2015 02:50 26:38 28:10
0019237 Altura APL MINNESOTA Container Ship 042 APL MERITUS San Pedro. (US) Lázaro Cardenas (MX) LR A8NM5 293.18 71,787.00 24/05/2015 10:53 9.44 24/05/2015 16:55 24/05/2015 17:30 GO / RH TC / TE 24/05/2015 17:42 24/05/2015 18:08 24/05/2015 18:31 AII T-11 Estribor 24/05/2015 19:25 25/05/2015 11:30 25/05/2015 11:56 RH / CM TE / VK 25/05/2015 12:05 AII 25/05/2015 12:32 25/05/2015 12:33 9.30 25/05/2015 13:04 17:57 20:09
0019236 Altura MSC MADELEINE Container Ship FA518A MSC MÉXICO MSC MÉXICO Yokohama (JP) Balboa (PA) PA 3EFR7 348.51 107,551.00 24/05/2015 09:33 12.30 24/05/2015 10:38 24/05/2015 11:08 DS / GO TE / TY / VK 24/05/2015 11:24 24/05/2015 11:53 24/05/2015 12:09 PV T-19 Estribor 24/05/2015 13:30 25/05/2015 04:00 25/05/2015 04:38 DS / GO TC / TE / VK 25/05/2015 05:08 PV 25/05/2015 05:48 25/05/2015 05:50 10.90 25/05/2015 06:17 17:15 19:39
0019235 Altura SISKIN ARROW* General Cargo 007 TRAMPA TRANSM Xingang (CN) Buenaventura (CO) MH V7CY6 210.00 46,295.00 24/05/2015 05:32 10.60 24/05/2015 07:38 24/05/2015 08:26 RH TC / TY 24/05/2015 08:49 24/05/2015 09:22 24/05/2015 09:35 PV T-15 Babor 24/05/2015 10:55 26/05/2015 05:20 45:02 46:46
0019234 Altura CCNI ANGOL* Container Ship 518E HS HSMMZO Lázaro Cardenas (MX) Callao (PE) LR D5GZ4 300.00 95,138.00 24/05/2015 05:02 13.50 24/05/2015 09:30 24/05/2015 09:58 RH TC / TY 24/05/2015 10:20 24/05/2015 10:46 24/05/2015 11:02 PV T-13 Estribor 24/05/2015 12:05 25/05/2015 11:40 25/05/2015 12:14 DS / GO TC / TY 25/05/2015 12:26 AIII 26/05/2015 00:37 26/05/2015 00:40 10.90 26/05/2015 01:05 37:17 39:35
Altura CCNI ANGOL* Container Ship 518E HS HSMMZO Lázaro Cardenas (MX) Callao (PE) LR D5GZ4 300.00 95,138.00 24/05/2015 05:02 13.50 24/05/2015 09:30 25/05/2015 12:26 DS / GO TC / TY 24/05/2015 10:20 25/05/2015 12:41 25/05/2015 13:06 AIII T-11 Estribor 25/05/2015 13:40 25/05/2015 22:30 26/05/2015 00:01 DS / CM TE / VK 26/05/2015 00:18 AII 26/05/2015 00:37 26/05/2015 00:40 10.90 26/05/2015 01:05 37:17 39:35
0019233 Altura GREEN POINT* Roro Cargo 41 NYK NYK Valparaiso (CL) Acapulco (MX) US WCY4148 180.00 51,819.00 24/05/2015 04:39 8.50 24/05/2015 05:43 24/05/2015 06:06 CM TY / VK 24/05/2015 06:17 24/05/2015 06:39 24/05/2015 06:56 PVI T-08 Estribor 24/05/2015 08:55 24/05/2015 12:00 24/05/2015 13:20 RH TC / TE 24/05/2015 13:28 PV 24/05/2015 13:51 24/05/2015 13:54 7.60 24/05/2015 14:29 06:49 08:46
0019232 Altura MEX III General Cargo 01 TRAMPA MHO Salina Cruz (MX) Dubai (AE) KN V4FV3 189.72 26,309.00 24/05/2015 02:15 9.40 24/05/2015 04:10 24/05/2015 05:01 Toma Combustible y Otros 25/05/2015 18:41 Estribor 9.60 25/05/2015 19:26 En Maniobra 39:16
0019231 Altura MAERSK SALALAH Container Ship 1515 MAERSK JCR Busan (ex Pusan) (KP) Lázaro Cardenas (MX) DK OZDM2 334.07 92,293.00 23/05/2015 17:20 14.00 23/05/2015 18:35 23/05/2015 19:02 RH MZ / TY / VK 23/05/2015 19:16 23/05/2015 19:48 23/05/2015 20:05 PVI T-18 Babor 23/05/2015 22:32 24/05/2015 06:45 24/05/2015 07:43 DS / GO TC / TE / TY 24/05/2015 07:57 PVI 24/05/2015 08:35 24/05/2015 08:40 13.10 24/05/2015 09:17 12:09 14:42
0019230 Altura TEMPANOS Container Ship 1513W CSAV HLCL Balboa (PA) Nakhodka (RU) LR A8VP9 299.96 88,586.00 23/05/2015 17:19 11.00 23/05/2015 18:30 23/05/2015 18:58 DS / GO TC / TE 23/05/2015 19:08 23/05/2015 19:27 23/05/2015 19:54 PVI T-10 Estribor 23/05/2015 21:30 25/05/2015 12:15 25/05/2015 13:52 DS / CM TE / VK 25/05/2015 14:07 PVI 25/05/2015 14:33 25/05/2015 14:34 11.10 25/05/2015 15:00 42:40 44:30
0019229 Altura CAP PALLISER Container Ship 520S HS HSMMZO Oakland (US) Puerto Quetzal (GT) LR A8OH4 186.36 22,914.00 23/05/2015 16:10 10.00 23/05/2015 20:06 23/05/2015 20:53 GO MZ / TE 23/05/2015 21:13 23/05/2015 21:32 23/05/2015 21:41 AII T-13 Estribor 23/05/2015 22:55 24/05/2015 08:47 24/05/2015 09:38 DS MZ / TC 24/05/2015 09:45 AIII 24/05/2015 10:05 24/05/2015 10:10 9.10 24/05/2015 10:34 12:13 14:28
0019228 Altura YM EMINENCE Container Ship 050E YML MARITIMEX Busan (ex Pusan) (KP) Savannah (US) LR A8OR9 268.80 42,741.00 23/05/2015 10:42 11.30 23/05/2015 12:22 23/05/2015 12:36 DS TE / VK 23/05/2015 13:00 23/05/2015 13:13 23/05/2015 13:22 PV T-02 Estribor 23/05/2015 14:00 23/05/2015 16:25 23/05/2015 17:00 DS / GO TY / VK 23/05/2015 17:04 PV 23/05/2015 17:24 23/05/2015 17:26 11.30 23/05/2015 17:45 03:51 05:23
0019227 Altura SANTA CRUZ* Container Ship 517E HS HSMMZO Lázaro Cardenas (MX) Balboa (PA) PT CQEO 299.95 85,676.00 23/05/2015 08:00 10.95 23/05/2015 10:57 23/05/2015 11:59 RH / CM TC / TY 23/05/2015 12:16 23/05/2015 12:38 23/05/2015 12:50 PVI T-11 Estribor 23/05/2015 14:00 24/05/2015 15:30 24/05/2015 17:00 GR / CM TC / TE 24/05/2015 17:08 AIII 24/05/2015 17:34 24/05/2015 17:38 10.60 24/05/2015 18:01 28:30 31:04
0019226 Cabotaje JAGUAROUNDI Tanker (Fluids) 915 PEMEX PEMEX-REF Salina Cruz (MX) La Paz (MX) MX XCUV3 183.00 30,159.00 23/05/2015 04:36 10.40 23/05/2015 07:10 23/05/2015 07:34 CM TC / TY 23/05/2015 07:45 23/05/2015 08:03 23/05/2015 08:25 AII M-EN Estribor 23/05/2015 10:12 24/05/2015 04:00 24/05/2015 05:50 RH TC / TE 24/05/2015 06:10 PV 24/05/2015 06:29 24/05/2015 06:31 8.50 24/05/2015 07:21 22:07 24:11
0019225 Cabotaje TULA Tanker (Fluids) 042 TMM LN TMMA Long Beach (US) Mazatlan (MX) MX V7QE4 183.32 29,242.00 22/05/2015 14:30 11.20 22/05/2015 15:50 22/05/2015 16:30 Espera de Muelle 24/05/2015 19:06 24/05/2015 19:40 DS TC / TE 24/05/2015 19:53 24/05/2015 20:10 24/05/2015 20:58 PV M-MA Estribor 24/05/2015 21:30 25/05/2015 01:10 25/05/2015 01:30 CM TC / TE 25/05/2015 01:55 PV 25/05/2015 02:08 25/05/2015 02:11 25/05/2015 02:42 Conveniencia de Buque 05:45 86:34
0019224 Altura HANSA KIRKENES Container Ship 126S X-PRESS MARITIMEX Caldera (CR) Corinto (NI) LU LXKH 170.22 15,988.00 22/05/2015 12:25 9.80 22/05/2015 14:29 22/05/2015 14:45 CM NC / TC 22/05/2015 15:02 22/05/2015 15:20 22/05/2015 15:27 PVI T-11 Estribor 22/05/2015 17:15 23/05/2015 09:30 23/05/2015 10:00 RH NC / MZ 23/05/2015 10:09 PVI 24/05/2015 09:56 24/05/2015 09:58 10.20 24/05/2015 10:32 41:27 44:03
Altura HANSA KIRKENES Container Ship 126S X-PRESS MARITIMEX Caldera (CR) Corinto (NI) LU LXKH 170.22 15,988.00 22/05/2015 12:25 9.80 22/05/2015 14:29 23/05/2015 10:09 RH NC / MZ 22/05/2015 15:02 23/05/2015 10:28 23/05/2015 10:35 PVI T-19 Babor 23/05/2015 10:40 23/05/2015 16:55 23/05/2015 18:20 CM NC / MZ 23/05/2015 18:23 PVI 24/05/2015 09:56 24/05/2015 09:58 10.20 24/05/2015 10:32 41:27 44:03
Altura HANSA KIRKENES Container Ship 126S X-PRESS MARITIMEX Caldera (CR) Corinto (NI) LU LXKH 170.22 15,988.00 22/05/2015 12:25 9.80 22/05/2015 14:29 23/05/2015 18:23 CM NC / MZ 22/05/2015 15:02 23/05/2015 18:55 23/05/2015 19:00 PVI T-04 Babor 23/05/2015 19:30 24/05/2015 08:00 24/05/2015 09:28 GO NC / VK 24/05/2015 09:38 PV 24/05/2015 09:56 24/05/2015 09:58 10.20 24/05/2015 10:32 41:27 44:03
0019223 Altura RIO DE JANEIRO EXPRESS Container Ship 05E20 HLCL HLCL Los Angeles (US) Manzanillo (PA) HK VRCR9 260.05 39,941.00 22/05/2015 12:20 10.40 22/05/2015 14:02 22/05/2015 14:37 RH TC / VK 22/05/2015 14:54 22/05/2015 15:15 22/05/2015 15:25 PVI T-12 Estribor 22/05/2015 17:30 23/05/2015 10:00 23/05/2015 11:35 DS / CM TC / VK 23/05/2015 11:39 PV 23/05/2015 12:02 23/05/2015 12:03 11.00 23/05/2015 12:19 20:24 22:17
0019221 Altura CONTI ARABELLA Container Ship 1518N HLCL HLCL Puerto Quetzal (GT) Buenaventura (CO) LR A8OF7 204.34 22,801.00 22/05/2015 04:59 6.40 22/05/2015 06:54 22/05/2015 07:48 CM TC / TY 22/05/2015 08:03 22/05/2015 08:22 22/05/2015 08:33 PV T-13 Estribor 22/05/2015 10:00 23/05/2015 19:00 23/05/2015 20:35 DS MZ / TE 23/05/2015 20:37 PV 23/05/2015 21:09 23/05/2015 21:13 11.00 23/05/2015 21:38 36:15 38:44
0019220 Altura SAN FRANCISCO BRIDGE Container Ship 1410W KLINE MARITIMEX Callao (PE) Tokyo (JP) PA 3FPV6 293.20 71,787.00 22/05/2015 03:40 11.90 22/05/2015 09:35 22/05/2015 09:59 DS / GO TC / TY 22/05/2015 10:14 22/05/2015 10:37 22/05/2015 10:45 PV T-10 Estribor 22/05/2015 12:20 23/05/2015 13:40 23/05/2015 16:18 RH / CM TC / TE 23/05/2015 16:34 PV 23/05/2015 17:04 23/05/2015 17:05 11.90 23/05/2015 17:25 29:57 31:50
0019219 Altura WAN HAI 516 Container Ship W014 WANHAI AGUNSA Callao (PE) Kaohsiung (TW) SG 9V7582 259.00 47,250.00 21/05/2015 16:33 9.30 21/05/2015 18:07 21/05/2015 18:37 GO / RH MZ / TE 21/05/2015 18:46 21/05/2015 19:01 21/05/2015 19:15 PVI T-02 Estribor 21/05/2015 20:10 22/05/2015 11:20 22/05/2015 12:54 RH / CM TC / TY 22/05/2015 13:08 PVI 22/05/2015 13:26 22/05/2015 13:27 10.50 22/05/2015 13:48 18:07 19:41
0019218 Altura DESPINA Tanker (Fluids) 01 TRAMPA NAVECOPA Los Angeles (US) Lázaro Cardenas (MX) GR SZLF 228.60 40,698.00 21/05/2015 11:14 8.50 21/05/2015 12:39 21/05/2015 13:33 CM TC / TY 21/05/2015 13:51 21/05/2015 14:02 21/05/2015 15:25 PVI M-MA Estribor 21/05/2015 18:06 24/05/2015 14:48 24/05/2015 18:55 CM TC / TE 24/05/2015 19:35 AIII 24/05/2015 19:47 24/05/2015 19:52 8.70 24/05/2015 20:19 77:33 79:40
0019217 Cabotaje CENTLA Tanker (Fluids) 815 PEMEX PEMEX-REF Lázaro Cardenas (MX) La Paz (MX) MX XCTY4 183.00 30,159.00 21/05/2015 09:27 10.50 21/05/2015 10:54 21/05/2015 11:18 GO TC / TY 21/05/2015 11:38 21/05/2015 11:46 21/05/2015 12:12 AII M-EN Babor 21/05/2015 14:54 22/05/2015 05:54 22/05/2015 08:12 DS TE / VK 22/05/2015 08:17 AII 22/05/2015 08:35 22/05/2015 08:36 10.10 22/05/2015 09:07 20:31 22:13

Programa Maestro de ...